createdAt,value
2019-03-15T00:02:05.931Z,99103.11
2019-03-15T00:04:39.670Z,99101.55
2019-03-15T00:07:08.785Z,99101.39
2019-03-15T00:09:39.649Z,99102.13
2019-03-15T00:12:10.108Z,99100.48
2019-03-15T00:14:40.589Z,99094.61
2019-03-15T00:17:11.048Z,99090.36
2019-03-15T00:19:41.515Z,99088.80
2019-03-15T00:22:12.001Z,99086.95
2019-03-15T00:24:42.798Z,99088.50
2019-03-15T00:27:13.471Z,99084.78
2019-03-15T00:29:44.110Z,99085.32
2019-03-15T00:32:16.271Z,99079.45
2019-03-15T00:34:46.782Z,99079.94
2019-03-15T00:37:17.463Z,99077.30
2019-03-15T00:39:48.266Z,99072.41
2019-03-15T00:42:19.006Z,99081.09
2019-03-15T00:44:49.598Z,99082.58
2019-03-15T00:47:20.170Z,99081.53
2019-03-15T00:49:51.037Z,99078.45
2019-03-15T00:52:21.766Z,99073.89
2019-03-15T00:54:52.537Z,99071.53
2019-03-15T00:57:23.377Z,99073.73
2019-03-15T00:59:54.350Z,99072.68
2019-03-15T01:02:25.013Z,99071.97
2019-03-15T01:04:55.518Z,99078.53
2019-03-15T01:07:25.953Z,99074.20
2019-03-15T01:09:56.441Z,99067.13
2019-03-15T01:12:26.898Z,99073.02
2019-03-15T01:14:57.810Z,99065.27
2019-03-15T01:17:28.610Z,99066.55
2019-03-15T01:19:59.383Z,99065.71
2019-03-15T01:22:30.017Z,99067.81
2019-03-15T01:25:00.591Z,99071.30
2019-03-15T01:27:31.482Z,99068.31
2019-03-15T01:30:02.222Z,99066.90
2019-03-15T01:32:32.724Z,99067.73
2019-03-15T01:35:03.520Z,99067.84
2019-03-15T01:37:34.234Z,99060.03
2019-03-15T01:40:05.178Z,99059.25
2019-03-15T01:42:35.937Z,99057.49
2019-03-15T01:45:06.626Z,99052.19
2019-03-15T01:47:37.369Z,99047.92
2019-03-15T01:50:08.501Z,99044.55
2019-03-15T01:52:38.954Z,99041.16
2019-03-15T01:55:09.596Z,99043.50
2019-03-15T01:57:40.147Z,99037.61
2019-03-15T02:00:11.739Z,99038.80
2019-03-15T02:02:42.247Z,99039.44
2019-03-15T02:05:12.713Z,99042.72
2019-03-15T02:07:43.471Z,99042.92
2019-03-15T02:10:14.178Z,99044.64
2019-03-15T02:12:45.025Z,99040.34
2019-03-15T02:15:15.718Z,99039.37
2019-03-15T02:17:46.394Z,99038.18
2019-03-15T02:20:17.284Z,99043.70
2019-03-15T02:22:47.964Z,99037.03
2019-03-15T02:25:18.632Z,99035.95
2019-03-15T02:27:49.135Z,99031.13
2019-03-15T02:30:19.586Z,99033.83
2019-03-15T02:32:50.086Z,99038.16
2019-03-15T02:35:20.581Z,99035.95
2019-03-15T02:37:51.081Z,99038.19
2019-03-15T02:40:21.537Z,99035.69
2019-03-15T02:42:53.157Z,99037.88
2019-03-15T02:45:23.897Z,99034.61
2019-03-15T02:47:54.399Z,99037.52
2019-03-15T02:50:25.196Z,99035.89
2019-03-15T02:52:55.911Z,99033.38
2019-03-15T02:55:26.761Z,99035.84
2019-03-15T02:57:57.555Z,99037.33
2019-03-15T03:00:27.999Z,99040.33
2019-03-15T03:02:58.512Z,99037.20
2019-03-15T03:05:29.016Z,99041.34
2019-03-15T03:07:59.490Z,99044.55
2019-03-15T03:10:30.036Z,98941.80
2019-03-15T03:13:00.827Z,99039.88
2019-03-15T03:15:31.652Z,99046.05
2019-03-15T03:18:02.432Z,99044.31
2019-03-15T03:20:33.256Z,99047.83
2019-03-15T03:23:04.228Z,99039.22
2019-03-15T03:25:35.007Z,99042.31
2019-03-15T03:28:05.693Z,99044.20
2019-03-15T03:30:36.454Z,99048.02
2019-03-15T03:33:07.173Z,99050.84
2019-03-15T03:35:38.241Z,99055.73
2019-03-15T03:38:08.958Z,99049.56
2019-03-15T03:40:39.737Z,99052.77
2019-03-15T03:43:10.509Z,99054.39
2019-03-15T03:45:41.272Z,99056.94
2019-03-15T03:48:12.048Z,99056.25
2019-03-15T03:50:43.466Z,99065.59
2019-03-15T03:53:14.372Z,99062.00
2019-03-15T03:55:45.168Z,99060.77
2019-03-15T03:58:15.716Z,99064.20
2019-03-15T04:00:46.201Z,99062.70
2019-03-15T04:03:16.732Z,99068.14
2019-03-15T04:05:47.187Z,99062.92
2019-03-15T04:08:17.791Z,98985.49
2019-03-15T04:10:48.245Z,99060.92
2019-03-15T04:13:18.745Z,99069.84
2019-03-15T04:15:49.224Z,99071.53
2019-03-15T04:18:19.687Z,99065.33
2019-03-15T04:20:50.152Z,99076.64
2019-03-15T04:23:20.644Z,99076.98
2019-03-15T04:25:51.090Z,99071.77
2019-03-15T04:28:21.586Z,99077.56
2019-03-15T04:30:52.257Z,99075.17
2019-03-15T04:33:23.121Z,99079.06
2019-03-15T04:35:53.890Z,99081.03
2019-03-15T04:38:24.639Z,99087.30
2019-03-15T04:40:55.095Z,99088.95
2019-03-15T04:43:26.106Z,99087.44
2019-03-15T04:45:56.920Z,99087.98
2019-03-15T04:48:27.677Z,99087.59
2019-03-15T04:50:58.437Z,99094.44
2019-03-15T04:53:29.277Z,99088.65
2019-03-15T04:56:00.156Z,99088.84
2019-03-15T04:58:30.947Z,99086.86
2019-03-15T05:01:01.787Z,99094.05
2019-03-15T05:03:32.662Z,99098.61
2019-03-15T05:06:04.094Z,99089.11
2019-03-15T05:08:34.832Z,99093.91
2019-03-15T05:11:05.336Z,99096.38
2019-03-15T05:13:35.793Z,99095.97
2019-03-15T05:16:06.589Z,99099.25
2019-03-15T05:18:37.220Z,99104.20
2019-03-15T05:21:08.068Z,99100.91
2019-03-15T05:23:38.842Z,99099.27
2019-03-15T05:26:09.621Z,99106.80
2019-03-15T05:28:40.317Z,99098.95
2019-03-15T05:31:11.054Z,99102.51
2019-03-15T05:33:41.828Z,99106.31
2019-03-15T05:36:12.512Z,99111.48
2019-03-15T05:38:43.005Z,99109.64
2019-03-15T05:41:13.500Z,99120.31
2019-03-15T05:43:44.003Z,99118.00
2019-03-15T05:46:14.746Z,99120.42
2019-03-15T05:48:45.451Z,99123.94
2019-03-15T05:51:15.961Z,99126.69
2019-03-15T05:53:46.462Z,99134.22
2019-03-15T05:56:16.934Z,99139.21
2019-03-15T05:58:47.473Z,99043.32
2019-03-15T06:01:17.997Z,99141.08
2019-03-15T06:03:49.365Z,99142.09
2019-03-15T06:06:19.996Z,99153.62
2019-03-15T06:08:50.522Z,99143.26
2019-03-15T06:11:20.980Z,99152.65
2019-03-15T06:13:51.437Z,99145.88
2019-03-15T06:16:21.945Z,99146.73
2019-03-15T06:18:52.413Z,99150.89
2019-03-15T06:21:22.882Z,99154.81
2019-03-15T06:23:53.427Z,99156.84
2019-03-15T06:26:23.893Z,99159.20
2019-03-15T06:28:54.532Z,99164.67
2019-03-15T06:31:25.013Z,99163.87
2019-03-15T06:33:55.562Z,99166.75
2019-03-15T06:36:26.086Z,99163.68
2019-03-15T06:38:56.569Z,99173.62
2019-03-15T06:41:28.197Z,99176.23
2019-03-15T06:43:59.215Z,99169.67
2019-03-15T06:46:29.703Z,99173.31
2019-03-15T06:49:00.178Z,99170.25
2019-03-15T06:51:30.683Z,99174.52
2019-03-15T06:54:10.797Z,99171.69
2019-03-15T06:56:33.314Z,99183.47
2019-03-15T06:59:04.465Z,99176.25
2019-03-15T07:01:34.971Z,99186.90
2019-03-15T07:04:05.710Z,99179.08
2019-03-15T07:06:36.305Z,99172.91
2019-03-15T07:09:08.254Z,99189.11
2019-03-15T07:11:38.740Z,99179.97
2019-03-15T07:14:09.262Z,99179.20
2019-03-15T07:16:39.912Z,99184.38
2019-03-15T07:19:10.528Z,99174.80
2019-03-15T07:21:41.049Z,99183.50
2019-03-15T07:24:24.199Z,99183.14
2019-03-15T07:26:44.009Z,99178.22
2019-03-15T07:29:14.472Z,99180.41
2019-03-15T07:31:44.945Z,99175.80
2019-03-15T07:34:15.850Z,99179.24
2019-03-15T07:36:46.432Z,99181.91
2019-03-15T07:39:16.914Z,99192.83
2019-03-15T07:41:47.457Z,99182.83
2019-03-15T07:44:18.004Z,99177.02
2019-03-15T07:46:50.926Z,99185.48
2019-03-15T07:49:20.668Z,99184.34
2019-03-15T07:51:51.165Z,99178.04
2019-03-15T07:54:37.034Z,99171.14
2019-03-15T07:56:56.703Z,99187.41
2019-03-15T07:59:28.035Z,99175.53
2019-03-15T08:01:58.557Z,99183.11
2019-03-15T08:04:29.297Z,99174.56
2019-03-15T08:06:59.729Z,99183.90
2019-03-15T08:09:30.285Z,99185.19
2019-03-15T08:12:00.789Z,99191.13
2019-03-15T08:14:31.317Z,99184.27
2019-03-15T08:17:01.794Z,99183.80
2019-03-15T08:19:32.281Z,99042.69
2019-03-15T08:22:02.829Z,99179.67
2019-03-15T08:24:36.486Z,99186.87
2019-03-15T08:27:05.667Z,99182.12
2019-03-15T08:29:36.212Z,99089.22
2019-03-15T08:32:06.734Z,99179.98
2019-03-15T08:34:37.205Z,99186.96
2019-03-15T08:37:07.717Z,99174.06
2019-03-15T08:39:38.206Z,99172.42
2019-03-15T08:42:08.730Z,99168.72
2019-03-15T08:44:39.197Z,99167.38
2019-03-15T08:47:09.675Z,99163.91
2019-03-15T08:49:40.148Z,99163.92
2019-03-15T08:52:10.643Z,99167.58
2019-03-15T08:54:41.166Z,99170.31
2019-03-15T08:57:11.666Z,99169.50
2019-03-15T08:59:52.772Z,99157.52
2019-03-15T09:02:14.669Z,99160.50
2019-03-15T09:04:45.118Z,99169.36
2019-03-15T09:07:15.720Z,99162.70
2019-03-15T09:09:46.452Z,99173.44
2019-03-15T09:12:16.929Z,99167.69
2019-03-15T09:14:47.401Z,99161.86
2019-03-15T09:17:20.030Z,99152.43
2019-03-15T09:19:50.350Z,99148.87
2019-03-15T09:22:20.841Z,99062.19
2019-03-15T09:24:51.469Z,99143.55
2019-03-15T09:27:21.936Z,99149.46
2019-03-15T09:29:52.435Z,99148.69
2019-03-15T09:32:22.949Z,99151.70
2019-03-15T09:34:55.701Z,99139.48
2019-03-15T09:37:25.748Z,99143.05
2019-03-15T09:39:56.276Z,99138.16
2019-03-15T09:42:26.889Z,99134.94
2019-03-15T09:44:57.354Z,99135.73
2019-03-15T09:47:27.857Z,99127.58
2019-03-15T09:49:58.331Z,99132.48
2019-03-15T09:52:28.908Z,99127.30
2019-03-15T09:54:59.377Z,99128.39
2019-03-15T09:57:29.846Z,99133.83
2019-03-15T10:00:00.451Z,99126.44
2019-03-15T10:02:38.803Z,99133.48
2019-03-15T10:05:11.261Z,99131.00
2019-03-15T10:07:43.820Z,99134.88
2019-03-15T10:10:18.244Z,99135.13
2019-03-15T10:12:47.578Z,99133.03
2019-03-15T10:15:18.141Z,99125.08
2019-03-15T10:17:48.719Z,99130.75
2019-03-15T10:20:19.235Z,99129.39
2019-03-15T10:23:05.425Z,99122.52
2019-03-15T10:25:24.351Z,99115.05
2019-03-15T10:27:54.806Z,99117.78
2019-03-15T10:30:25.266Z,99113.65
2019-03-15T10:32:55.904Z,99105.74
2019-03-15T10:35:26.370Z,99105.91
2019-03-15T10:37:56.893Z,99107.09
2019-03-15T10:40:27.477Z,99112.00
2019-03-15T10:42:58.361Z,99112.31
2019-03-15T10:45:29.076Z,99099.17
2019-03-15T10:47:59.644Z,99096.81
2019-03-15T10:50:30.159Z,99093.81
2019-03-15T10:53:00.806Z,99088.67
2019-03-15T10:55:31.356Z,99093.69
2019-03-15T10:58:01.949Z,99096.23
2019-03-15T11:00:32.534Z,99089.97
2019-03-15T11:03:03.037Z,99084.98
2019-03-15T11:05:33.656Z,99078.05
2019-03-15T11:08:04.212Z,99077.59
2019-03-15T11:10:34.785Z,99080.33
2019-03-15T11:13:05.309Z,99077.73
2019-03-15T11:15:35.897Z,99077.41
2019-03-15T11:18:06.500Z,99065.03
2019-03-15T11:20:36.952Z,99066.78
2019-03-15T11:23:07.436Z,99049.43
2019-03-15T11:25:37.920Z,99064.39
2019-03-15T11:28:08.419Z,99060.55
2019-03-15T11:30:38.887Z,99057.24
2019-03-15T11:33:09.495Z,99053.04
2019-03-15T11:35:40.051Z,99053.38
2019-03-15T11:38:10.538Z,99048.59
2019-03-15T11:40:41.009Z,99047.30
2019-03-15T11:43:11.531Z,99057.00
2019-03-15T11:45:42.050Z,99048.19
2019-03-15T11:48:12.602Z,99047.17
2019-03-15T11:50:43.205Z,99034.23
2019-03-15T11:53:14.017Z,99037.49
2019-03-15T11:55:44.512Z,99039.31
2019-03-15T11:58:14.988Z,99036.86
2019-03-15T12:00:45.456Z,99035.63
2019-03-15T12:03:15.936Z,99034.27
2019-03-15T12:05:46.439Z,99025.23
2019-03-15T12:08:17.001Z,99023.02
2019-03-15T12:10:47.548Z,99023.67
2019-03-15T12:13:18.109Z,99027.34
2019-03-15T12:15:48.555Z,99019.28
2019-03-15T12:18:19.063Z,99012.73
2019-03-15T12:20:49.632Z,99011.55
2019-03-15T12:23:20.517Z,99002.12
2019-03-15T12:25:51.017Z,99011.16
2019-03-15T12:28:21.508Z,99014.31
2019-03-15T12:30:52.002Z,99014.70
2019-03-15T12:33:22.456Z,99015.26
2019-03-15T12:35:53.007Z,99017.65
2019-03-15T12:38:23.476Z,99014.95
2019-03-15T12:40:53.981Z,99014.95
2019-03-15T12:43:24.439Z,99020.60
2019-03-15T12:45:54.961Z,99020.22
2019-03-15T12:48:25.522Z,99022.30
2019-03-15T12:50:56.063Z,99016.19
2019-03-15T12:53:27.486Z,99017.28
2019-03-15T12:55:58.113Z,99011.44
2019-03-15T12:58:28.576Z,99012.30
2019-03-15T13:00:59.085Z,99019.00
2019-03-15T13:03:29.597Z,99018.55
2019-03-15T13:06:00.091Z,99021.69
2019-03-15T13:08:30.560Z,99022.48
2019-03-15T13:11:01.060Z,99027.82
2019-03-15T13:13:31.571Z,99025.17
2019-03-15T13:16:02.043Z,99031.94
2019-03-15T13:18:32.572Z,99034.69
2019-03-15T13:21:03.032Z,99023.06
2019-03-15T13:23:33.526Z,99042.78
2019-03-15T13:26:04.145Z,99031.48
2019-03-15T13:28:34.666Z,99028.48
2019-03-15T13:31:05.211Z,99030.58
2019-03-15T13:33:35.664Z,99036.59
2019-03-15T13:36:06.148Z,99037.45
2019-03-15T13:38:36.783Z,99028.60
2019-03-15T13:41:07.516Z,99022.95
2019-03-15T13:43:38.024Z,99021.44
2019-03-15T13:46:08.682Z,99025.69
2019-03-15T13:48:39.203Z,99027.02
2019-03-15T13:51:09.655Z,99028.40
2019-03-15T13:53:40.175Z,99010.45
2019-03-15T13:56:10.653Z,99021.17
2019-03-15T13:58:41.325Z,99023.97
2019-03-15T14:01:11.821Z,99028.86
2019-03-15T14:03:42.287Z,99018.23
2019-03-15T14:06:12.782Z,99022.27
2019-03-15T14:08:43.261Z,99009.63
2019-03-15T14:11:13.770Z,99024.07
2019-03-15T14:13:44.315Z,99025.90
2019-03-15T14:16:14.851Z,99027.23
2019-03-15T14:18:46.057Z,99027.97
2019-03-15T14:21:16.579Z,99028.20
2019-03-15T14:23:47.092Z,99026.55
2019-03-15T14:26:17.631Z,99033.67
2019-03-15T14:28:48.092Z,99037.20
2019-03-15T14:31:21.420Z,99030.31
2019-03-15T14:33:50.757Z,99032.14
2019-03-15T14:36:21.267Z,99035.77
2019-03-15T14:38:51.773Z,99029.73
2019-03-15T14:41:22.553Z,99035.47
2019-03-15T14:43:53.172Z,99038.48
2019-03-15T14:46:23.630Z,99024.59
2019-03-15T14:48:54.161Z,99036.55
2019-03-15T14:51:24.674Z,99041.16
2019-03-15T14:53:58.234Z,99036.77
2019-03-15T14:56:28.740Z,99049.60
2019-03-15T14:58:59.236Z,99042.25
2019-03-15T15:01:29.748Z,99052.09
2019-03-15T15:04:00.245Z,99030.31
2019-03-15T15:06:32.810Z,99049.45
2019-03-15T15:09:02.999Z,99060.40
2019-03-15T15:11:33.464Z,99056.29
2019-03-15T15:14:04.292Z,99051.97
2019-03-15T15:16:34.758Z,99060.16
2019-03-15T15:19:05.412Z,99047.91
2019-03-15T15:21:35.878Z,99062.63
2019-03-15T15:24:06.575Z,99069.19
2019-03-15T15:26:37.501Z,99072.20
2019-03-15T15:29:13.014Z,99073.59
2019-03-15T15:31:43.471Z,99082.84
2019-03-15T15:34:13.975Z,99080.66
2019-03-15T15:36:44.454Z,99082.05
2019-03-15T15:39:14.960Z,99087.78
2019-03-15T15:41:45.486Z,99096.48
2019-03-15T15:44:15.955Z,99096.52
2019-03-15T15:46:46.455Z,99097.89
2019-03-15T15:49:16.928Z,99096.50
2019-03-15T15:51:47.423Z,99102.77
2019-03-15T15:54:17.887Z,99103.33
2019-03-15T15:56:50.856Z,99109.08
2019-03-15T15:59:20.535Z,99112.61
2019-03-15T16:01:51.025Z,99115.56
2019-03-15T16:04:21.552Z,99119.39
2019-03-15T16:06:52.022Z,99126.46
2019-03-15T16:09:22.528Z,99123.17
2019-03-15T16:11:52.970Z,99122.08
2019-03-15T16:14:23.745Z,99126.16
2019-03-15T16:16:54.631Z,99127.55
2019-03-15T16:19:25.435Z,99129.67
2019-03-15T16:21:56.087Z,99130.20
2019-03-15T16:24:26.759Z,99132.14
2019-03-15T16:26:57.312Z,99142.50
2019-03-15T16:29:28.200Z,99145.51
2019-03-15T16:31:58.900Z,99148.49
2019-03-15T16:34:29.606Z,99147.94
2019-03-15T16:37:00.405Z,99157.19
2019-03-15T16:39:31.141Z,99170.20
2019-03-15T16:42:01.803Z,99172.41
2019-03-15T16:44:32.549Z,99176.45
2019-03-15T16:47:03.313Z,99178.92
2019-03-15T16:49:33.825Z,99186.53
2019-03-15T16:52:04.280Z,99189.80
2019-03-15T16:54:34.743Z,99195.45
2019-03-15T16:57:05.339Z,99199.98
2019-03-15T16:59:35.801Z,99207.27
2019-03-15T17:02:06.296Z,99212.11
2019-03-15T17:04:36.966Z,99210.76
2019-03-15T17:07:07.835Z,99211.91
2019-03-15T17:09:38.604Z,99213.28
2019-03-15T17:12:09.378Z,99216.56
2019-03-15T17:14:40.109Z,99214.13
2019-03-15T17:17:10.785Z,99220.33
2019-03-15T17:19:41.576Z,99227.33
2019-03-15T17:22:12.211Z,99234.68
2019-03-15T17:24:43.055Z,99239.30
2019-03-15T17:27:13.519Z,99236.04
2019-03-15T17:29:44.025Z,99243.16
2019-03-15T17:32:14.498Z,99243.17
2019-03-15T17:34:45.010Z,99247.80
2019-03-15T17:37:15.813Z,99249.98
2019-03-15T17:39:46.580Z,99258.70
2019-03-15T17:42:17.449Z,99262.23
2019-03-15T17:44:48.251Z,99270.13
2019-03-15T17:47:18.967Z,99275.03
2019-03-15T17:49:49.629Z,99280.77
2019-03-15T17:52:20.385Z,99285.11
2019-03-15T17:54:51.213Z,99293.26
2019-03-15T17:57:21.901Z,99297.33
2019-03-15T18:00:19.604Z,99303.81
2019-03-15T18:02:50.505Z,99304.61
2019-03-15T18:05:21.350Z,99316.78
2019-03-15T18:07:52.077Z,99317.03
2019-03-15T18:10:22.823Z,99314.81
2019-03-15T18:12:53.649Z,99319.12
2019-03-15T18:15:24.576Z,99329.67
2019-03-15T18:17:55.255Z,99330.75
2019-03-15T18:20:26.059Z,99339.16
2019-03-15T18:22:56.931Z,99339.14
2019-03-15T18:25:27.563Z,99342.11
2019-03-15T18:27:58.266Z,99351.04
2019-03-15T18:30:29.105Z,99354.55
2019-03-15T18:33:00.057Z,99356.98
2019-03-15T18:35:33.996Z,99356.70
2019-03-15T18:38:03.191Z,99363.38
2019-03-15T18:40:33.880Z,99367.78
2019-03-15T18:43:04.732Z,99363.98
2019-03-15T18:45:35.461Z,99371.30
2019-03-15T18:48:06.389Z,99366.94
2019-03-15T18:50:37.138Z,99373.47
2019-03-15T18:53:07.971Z,99370.64
2019-03-15T18:55:38.673Z,99369.59
2019-03-15T18:58:09.495Z,99372.02
2019-03-15T19:00:40.193Z,99378.79
2019-03-15T19:03:11.112Z,99382.28
2019-03-15T19:05:41.918Z,99390.65
2019-03-15T19:08:12.653Z,99391.44
2019-03-15T19:10:43.357Z,99391.98
2019-03-15T19:13:14.230Z,99392.01
2019-03-15T19:15:44.993Z,99391.71
2019-03-15T19:18:15.623Z,99397.34
2019-03-15T19:20:46.559Z,99400.08
2019-03-15T19:23:17.374Z,99405.02
2019-03-15T19:25:48.038Z,99403.41
2019-03-15T19:28:18.714Z,99416.06
2019-03-15T19:30:49.477Z,99414.00
2019-03-15T19:33:20.252Z,99414.59
2019-03-15T19:35:50.909Z,99413.78
2019-03-15T19:38:21.818Z,99416.20
2019-03-15T19:40:52.322Z,99414.03
2019-03-15T19:43:22.888Z,99412.91
2019-03-15T19:45:53.325Z,99418.34
2019-03-15T19:48:23.843Z,99417.77
2019-03-15T19:50:54.303Z,99416.58
2019-03-15T19:53:24.769Z,99423.61
2019-03-15T19:55:55.269Z,99422.50
2019-03-15T19:58:25.717Z,99420.88
2019-03-15T20:00:56.498Z,99422.23
2019-03-15T20:03:27.211Z,99412.38
2019-03-15T20:05:57.685Z,99413.28
2019-03-15T20:08:28.190Z,99416.21
2019-03-15T20:10:58.713Z,99320.02
2019-03-15T20:13:29.218Z,99416.48
2019-03-15T20:15:59.681Z,99422.38
2019-03-15T20:18:30.183Z,99421.00
2019-03-15T20:21:00.667Z,99428.52
2019-03-15T20:23:31.117Z,99426.93
2019-03-15T20:26:01.883Z,99429.78
2019-03-15T20:28:32.344Z,99431.85
2019-03-15T20:31:03.091Z,99432.06
2019-03-15T20:33:33.961Z,99426.97
2019-03-15T20:36:04.479Z,99427.75
2019-03-15T20:38:35.206Z,99424.17
2019-03-15T20:41:06.067Z,99436.56
2019-03-15T20:43:36.874Z,99440.09
2019-03-15T20:46:07.577Z,99433.78
2019-03-15T20:48:38.411Z,99434.67
2019-03-15T20:51:09.101Z,99438.50
2019-03-15T20:53:39.916Z,99437.70
2019-03-15T20:56:10.659Z,99444.30
2019-03-15T20:58:41.520Z,99448.88
2019-03-15T21:01:12.234Z,99446.16
2019-03-15T21:03:55.569Z,99445.77
2019-03-15T21:06:15.407Z,99451.77
2019-03-15T21:08:45.940Z,99446.66
2019-03-15T21:11:16.388Z,99452.08
2019-03-15T21:13:47.030Z,99453.83
2019-03-15T21:16:18.425Z,99459.97
2019-03-15T21:18:49.398Z,99462.80
2019-03-15T21:21:20.011Z,99467.83
2019-03-15T21:23:50.666Z,99474.60
2019-03-15T21:26:21.336Z,99473.99
2019-03-15T21:28:51.955Z,99468.41
2019-03-15T21:31:22.835Z,99476.84
2019-03-15T21:33:53.607Z,99478.93
2019-03-15T21:36:24.307Z,99479.25
2019-03-15T21:38:54.918Z,99478.08
2019-03-15T21:41:25.536Z,99477.80
2019-03-15T21:43:56.421Z,99477.91
2019-03-15T21:46:27.078Z,99475.52
2019-03-15T21:48:57.736Z,99482.33
2019-03-15T21:51:28.436Z,99476.83
2019-03-15T21:53:59.190Z,99478.95
2019-03-15T21:56:29.770Z,99473.67
2019-03-15T21:59:00.427Z,99470.09
2019-03-15T22:01:31.276Z,99478.23
2019-03-15T22:04:01.975Z,99477.17
2019-03-15T22:06:32.428Z,99468.20
2019-03-15T22:09:02.983Z,99474.98
2019-03-15T22:11:33.485Z,99474.20
2019-03-15T22:14:04.050Z,99479.33
2019-03-15T22:16:34.538Z,99480.61
2019-03-15T22:19:05.385Z,99483.22
2019-03-15T22:21:36.044Z,99472.27
2019-03-15T22:24:06.867Z,99489.41
2019-03-15T22:26:37.320Z,99479.44
2019-03-15T22:29:08.066Z,99483.24
2019-03-15T22:31:38.563Z,99485.30
2019-03-15T22:34:09.300Z,99480.30
2019-03-15T22:36:40.090Z,99475.47
2019-03-15T22:39:10.915Z,99478.18
2019-03-15T22:41:41.600Z,99477.56
2019-03-15T22:44:12.433Z,99466.78
2019-03-15T22:46:42.870Z,99479.64
2019-03-15T22:49:13.377Z,99484.52
2019-03-15T22:51:43.871Z,99491.06
2019-03-15T22:54:14.362Z,99485.28
2019-03-15T22:56:44.848Z,99494.08
2019-03-15T22:59:15.627Z,99481.26
2019-03-15T23:01:46.395Z,99489.30
2019-03-15T23:04:17.135Z,99493.53
2019-03-15T23:06:47.936Z,99489.39
2019-03-15T23:09:18.435Z,99486.41
2019-03-15T23:11:49.269Z,99482.48
2019-03-15T23:14:20.144Z,99487.98
2019-03-15T23:16:50.605Z,99484.52
2019-03-15T23:19:21.412Z,99493.34
2019-03-15T23:21:52.170Z,99488.70
2019-03-15T23:24:22.625Z,99493.88
2019-03-15T23:26:53.508Z,99498.16
2019-03-15T23:29:24.271Z,99496.22
2019-03-15T23:31:55.016Z,99486.16
2019-03-15T23:34:25.518Z,99499.41
2019-03-15T23:36:55.974Z,99489.95
2019-03-15T23:39:26.459Z,99489.95
2019-03-15T23:41:56.939Z,99485.16
2019-03-15T23:44:27.393Z,99490.73
2019-03-15T23:46:57.877Z,99491.47
2019-03-15T23:49:28.586Z,99488.23
2019-03-15T23:51:59.355Z,99484.83
2019-03-15T23:54:29.937Z,99491.05
2019-03-15T23:57:00.620Z,99486.41
2019-03-15T23:59:31.265Z,99486.45
